Time;durP1;ratioP1;P1;durP2;ratioP2;P2;SDS_P1;SDS_P2;PMS_P1;PMS_P2;Temp;Humidity;BMP_temperature;BMP_pressure;BME280_temperature;BME280_humidity;BME280_pressure;Samples;Min_cycle;Max_cycle;Signal;HPM_P1;HPM_P2
2022/06/20 01:37:36;;;;;;;;;;;;;;;;;;5023389;28;20302;-62
2022/06/20 01:40:02;;;;;;;;;;;;;;;;;;5023518;28;19920;-61
2022/06/20 01:42:30;;;;;;;;;;;;;;;;;;5022981;28;19917;-62
2022/06/20 01:44:58;;;;;;;;;;;;;;;;;;5022517;28;19921;-61
2022/06/20 01:47:23;;;;;;;;;;;;;;;;;;5021379;28;19967;-60
2022/06/20 01:49:49;;;;;;;;;;;;;;;;;;5022951;28;20319;-61
2022/06/20 01:52:14;;;;;;;;;;;;;;;;;;5022060;28;19925;-60
2022/06/20 01:54:40;;;;;;;;;;;;;;;;;;5021744;28;19947;-60
2022/06/20 01:57:07;;;;;;;;;;;;;;;;;;5022102;28;19999;-60
2022/06/20 01:59:33;;;;;;;;;;;;;;;;;;5002231;28;19921;-60
2022/06/20 02:02:05;;;;;;;;;;;;;;;;;;5006552;28;20020;-61
2022/06/20 02:04:31;;;;;;;;;;;;;;;;;;5020275;28;19931;-61
2022/06/20 02:06:56;;;;;;;;;;;;;;;;;;5025431;28;19917;-61
2022/06/20 02:09:21;;;;;;;;;;;;;;;;;;5001548;28;19975;-61
2022/06/20 02:11:48;;;;;;;;;;;;;;;;;;5022425;28;20766;-61
2022/06/20 02:14:18;;;;;;;;;;;;;;;;;;5023243;28;19921;-61
2022/06/20 02:16:43;;;;;;;;;;;;;;;;;;5023625;28;21806;-61
2022/06/20 02:19:11;;;;;;;;;;;;;;;;;;5022660;28;20272;-61
2022/06/20 02:21:39;;;;;;;;;;;;;;;;;;5019921;28;19933;-61
2022/06/20 02:24:07;;;;;;;;;;;;;;;;;;5019318;28;19924;-61
2022/06/20 02:26:32;;;;;;;;;;;;;;;;;;5023844;28;19920;-61
2022/06/20 02:29:00;;;;;;;;;;;;;;;;;;5015647;28;19932;-61
2022/06/20 02:31:28;;;;;;;;;;;;;;;;;;5024174;28;20663;-61
2022/06/20 02:33:54;;;;;;;;;;;;;;;;;;5019438;28;19932;-61
2022/06/20 02:36:19;;;;;;;;;;;;;;;;;;5020477;28;20034;-61
2022/06/20 02:38:44;;;;;;;;;;;;;;;;;;5019589;28;19956;-62
2022/06/20 02:41:10;;;;;;;;;;;;;;;;;;5000447;28;19921;-61
2022/06/20 02:43:38;;;;;;;;;;;;;;;;;;5021586;28;19927;-61
2022/06/20 02:46:05;;;;;;;;;;;;;;;;;;5021813;28;19970;-61
2022/06/20 02:48:31;;;;;;;;;;;;;;;;;;5017047;28;19924;-61
2022/06/20 02:50:56;;;;;;;;;;;;;;;;;;5004507;28;20619;-61
2022/06/20 02:53:21;;;;;;;;;;;;;;;;;;5023037;28;19917;-61
2022/06/20 02:55:46;;;;;;;;;;;;;;;;;;5021590;28;20035;-61
2022/06/20 02:58:14;;;;;;;;;;;;;;;;;;5020932;28;20027;-62
2022/06/20 03:00:40;;;;;;;;;;;;;;;;;;5022763;28;19982;-62
2022/06/20 03:03:05;;;;;;;;;;;;;;;;;;5019919;28;19921;-62
2022/06/20 03:05:30;;;;;;;;;;;;;;;;;;5020148;28;19935;-62
2022/06/20 03:07:56;;;;;;;;;;;;;;;;;;5019116;28;19917;-62
2022/06/20 03:10:23;;;;;;;;;;;;;;;;;;5022911;28;19920;-62
2022/06/20 03:12:51;;;;;;;;;;;;;;;;;;5021349;28;19925;-61
2022/06/20 03:15:16;;;;;;;;;;;;;;;;;;5022667;28;19920;-60
2022/06/20 03:17:41;;;;;;;;;;;;;;;;;;5020407;28;19928;-60
2022/06/20 03:20:09;;;;;;;;;;;;;;;;;;5019772;28;19939;-61
2022/06/20 03:22:41;;;;;;;;;;;;;;;;;;5021362;28;19921;-61
2022/06/20 03:25:07;;;;;;;;;;;;;;;;;;4999531;28;20515;-60
2022/06/20 03:27:35;;;;;;;;;;;;;;;;;;5020985;28;19917;-60
2022/06/20 03:30:03;;;;;;;;;;;;;;;;;;5021035;28;19999;-61
2022/06/20 03:32:31;;;;;;;;;;;;;;;;;;5022401;28;20548;-61
2022/06/20 03:34:56;;;;;;;;;;;;;;;;;;5022667;28;19975;-61
2022/06/20 03:37:24;;;;;;;;;;;;;;;;;;5001328;28;20071;-61
2022/06/20 03:39:51;;;;;;;;;;;;;;;;;;5021958;28;20683;-61
2022/06/20 03:42:17;;;;;;;;;;;;;;;;;;5020642;28;20296;-61
2022/06/20 03:44:44;;;;;;;;;;;;;;;;;;5021824;28;19920;-61
2022/06/20 03:47:12;;;;;;;;;;;;;;;;;;5020970;28;19924;-62
2022/06/20 03:49:37;;;;;;;;;;;;;;;;;;5019969;28;19916;-60
2022/06/20 03:52:03;;;;;;;;;;;;;;;;;;5021028;28;20446;-61
2022/06/20 03:54:28;;;;;;;;;;;;;;;;;;5018773;28;20004;-61
2022/06/20 03:56:56;;;;;;;;;;;;;;;;;;5021381;28;20446;-62
2022/06/20 03:59:24;;;;;;;;;;;;;;;;;;4988266;28;19921;-62
2022/06/20 04:01:51;;;;;;;;;;;;;;;;;;5021376;28;19927;-62
2022/06/20 04:04:17;;;;;;;;;;;;;;;;;;5020506;28;19921;-61
2022/06/20 04:06:42;;;;;;;;;;;;;;;;;;5019792;28;20407;-61
2022/06/20 04:11:54;;;;;;;;;;;;;;;;;;5019599;28;19921;-62
2022/06/20 04:14:19;;;;;;;;;;;;;;;;;;5020521;28;19990;-61
2022/06/20 04:16:45;;;;;;;;;;;;;;;;;;5016516;28;19920;-60
2022/06/20 04:19:13;;;;;;;;;;;;;;;;;;5019766;28;19921;-61
2022/06/20 04:21:38;;;;;;;;;;;;;;;;;;5004456;28;19932;-61
2022/06/20 04:24:03;;;;;;;;;;;;;;;;;;5019566;28;20004;-62
2022/06/20 04:26:29;;;;;;;;;;;;;;;;;;5021022;28;19925;-61
2022/06/20 04:28:54;;;;;;;;;;;;;;;;;;5019217;28;19928;-61
2022/06/20 04:31:22;;;;;;;;;;;;;;;;;;5019053;28;20626;-62
2022/06/20 04:33:50;;;;;;;;;;;;;;;;;;5021664;28;20028;-61
2022/06/20 04:36:18;;;;;;;;;;;;;;;;;;5018596;28;19917;-62
2022/06/20 04:38:45;;;;;;;;;;;;;;;;;;5020413;28;19932;-62
2022/06/20 04:41:11;;;;;;;;;;;;;;;;;;5023201;28;19924;-61
2022/06/20 04:43:36;;;;;;;;;;;;;;;;;;5022784;28;19937;-62
2022/06/20 04:46:06;;;;;;;;;;;;;;;;;;5024001;28;19925;-61
2022/06/20 04:48:32;;;;;;;;;;;;;;;;;;5023190;28;20344;-62
2022/06/20 04:51:01;;;;;;;;;;;;;;;;;;5021830;28;20364;-61
2022/06/20 04:53:27;;;;;;;;;;;;;;;;;;5022071;28;19921;-61
2022/06/20 04:55:52;;;;;;;;;;;;;;;;;;5023138;28;19928;-62
2022/06/20 04:58:20;;;;;;;;;;;;;;;;;;5022005;28;19955;-61
2022/06/20 05:00:45;;;;;;;;;;;;;;;;;;5024534;28;19917;-61
2022/06/20 05:03:10;;;;;;;;;;;;;;;;;;5024054;28;20496;-61
2022/06/20 05:05:38;;;;;;;;;;;;;;;;;;5006529;28;19921;-62
2022/06/20 05:08:03;;;;;;;;;;;;;;;;;;5021251;28;21146;-62
2022/06/20 05:10:29;;;;;;;;;;;;;;;;;;5024502;28;19970;-62
2022/06/20 05:12:57;;;;;;;;;;;;;;;;;;5004877;28;19921;-62
2022/06/20 05:15:22;;;;;;;;;;;;;;;;;;5006577;28;19979;-62
2022/06/20 05:17:48;;;;;;;;;;;;;;;;;;5023033;28;19921;-63
2022/06/20 05:20:15;;;;;;;;;;;;;;;;;;5021733;28;19917;-62
2022/06/20 05:22:41;;;;;;;;;;;;;;;;;;5020776;28;19928;-61
2022/06/20 05:25:06;;;;;;;;;;;;;;;;;;5021141;28;19917;-62
2022/06/20 05:27:31;;;;;;;;;;;;;;;;;;5020936;28;19921;-63
2022/06/20 05:29:58;;;;;;;;;;;;;;;;;;5008296;28;19974;-63
2022/06/20 05:32:24;;;;;;;;;;;;;;;;;;5021546;28;19920;-62
2022/06/20 05:34:52;;;;;;;;;;;;;;;;;;5004128;28;19924;-61
2022/06/20 05:37:17;;;;;;;;;;;;;;;;;;5023796;28;19967;-63
2022/06/20 05:39:43;;;;;;;;;;;;;;;;;;5023627;28;20516;-63
2022/06/20 05:42:09;;;;;;;;;;;;;;;;;;5021208;28;20906;-62
2022/06/20 05:44:34;;;;;;;;;;;;;;;;;;5008021;28;19931;-64
2022/06/20 05:47:02;;;;;;;;;;;;;;;;;;5021426;28;19956;-62
2022/06/20 05:49:30;;;;;;;;;;;;;;;;;;5007696;28;19921;-62
2022/06/20 05:51:56;;;;;;;;;;;;;;;;;;5018539;28;19967;-62
2022/06/20 05:54:21;;;;;;;;;;;;;;;;;;5022053;28;19920;-63
2022/06/20 05:56:47;;;;;;;;;;;;;;;;;;5020479;28;20676;-62
2022/06/20 05:59:12;;;;;;;;;;;;;;;;;;5023204;28;20027;-64
2022/06/20 06:01:38;;;;;;;;;;;;;;;;;;5023090;28;19923;-67
2022/06/20 06:04:03;;;;;;;;;;;;;;;;;;5020415;28;19996;-64
2022/06/20 06:06:29;;;;;;;;;;;;;;;;;;5024572;28;20384;-63
2022/06/20 06:08:54;;;;;;;;;;;;;;;;;;5019337;28;19957;-64
2022/06/20 06:11:19;;;;;;;;;;;;;;;;;;5021852;28;19945;-64
2022/06/20 06:13:47;;;;;;;;;;;;;;;;;;5020677;28;21959;-64
2022/06/20 06:18:59;;;;;;;;;;;;;;;;;;5023731;28;19921;-63
2022/06/20 06:21:25;;;;;;;;;;;;;;;;;;5017693;28;19931;-64
2022/06/20 06:23:50;;;;;;;;;;;;;;;;;;5002708;28;20285;-64
2022/06/20 06:26:15;;;;;;;;;;;;;;;;;;5022366;28;19920;-65
2022/06/20 06:28:41;;;;;;;;;;;;;;;;;;5019122;28;20012;-62
2022/06/20 06:31:06;;;;;;;;;;;;;;;;;;5024239;28;19947;-64
2022/06/20 06:33:33;;;;;;;;;;;;;;;;;;5020721;28;19978;-65
2022/06/20 06:35:59;;;;;;;;;;;;;;;;;;5021438;28;20568;-64
2022/06/20 06:38:24;;;;;;;;;;;;;;;;;;5021001;28;19985;-64
2022/06/20 06:40:52;;;;;;;;;;;;;;;;;;5002771;28;19964;-67
2022/06/20 06:43:17;;;;;;;;;;;;;;;;;;5020728;28;20733;-63
2022/06/20 06:45:43;;;;;;;;;;;;;;;;;;5017821;28;19921;-65
2022/06/20 06:48:11;;;;;;;;;;;;;;;;;;5016472;28;19995;-64
2022/06/20 06:50:39;;;;;;;;;;;;;;;;;;5018707;28;20371;-65
2022/06/20 06:53:07;;;;;;;;;;;;;;;;;;5016688;28;20064;-65
2022/06/20 06:55:33;;;;;;;;;;;;;;;;;;5020059;28;19921;-65
2022/06/20 06:57:58;;;;;;;;;;;;;;;;;;5020551;28;20017;-63
2022/06/20 07:00:23;;;;;;;;;;;;;;;;;;5021636;28;19931;-67
2022/06/20 07:02:52;;;;;;;;;;;;;;;;;;5020367;28;19924;-64
2022/06/20 07:05:18;;;;;;;;;;;;;;;;;;5021259;28;20004;-64
2022/06/20 07:07:43;;;;;;;;;;;;;;;;;;5019571;28;19977;-65
2022/06/20 07:10:08;;;;;;;;;;;;;;;;;;5019244;28;19929;-66
2022/06/20 07:12:36;;;;;;;;;;;;;;;;;;5004421;28;19924;-63
2022/06/20 07:15:02;;;;;;;;;;;;;;;;;;5017628;28;19983;-66
2022/06/20 07:17:27;;;;;;;;;;;;;;;;;;5020198;28;19920;-64
2022/06/20 07:19:55;;;;;;;;;;;;;;;;;;5019172;28;19921;-66
2022/06/20 07:22:20;;;;;;;;;;;;;;;;;;5019141;28;20899;-64
2022/06/20 07:24:46;;;;;;;;;;;;;;;;;;5019729;28;19963;-66
2022/06/20 07:27:11;;;;;;;;;;;;;;;;;;5019531;28;20579;-67
2022/06/20 07:29:40;;;;;;;;;;;;;;;;;;5019418;28;19967;-66
2022/06/20 07:32:05;;;;;;;;;;;;;;;;;;5021976;28;19945;-66
2022/06/20 07:34:33;;;;;;;;;;;;;;;;;;5020393;28;20016;-66
2022/06/20 07:36:58;;;;;;;;;;;;;;;;;;5020253;28;20638;-67
2022/06/20 07:39:26;;;;;;;;;;;;;;;;;;5018919;28;19999;-68
2022/06/20 07:41:51;;;;;;;;;;;;;;;;;;5019007;28;19982;-67
2022/06/20 07:44:17;;;;;;;;;;;;;;;;;;5018167;28;20372;-65
2022/06/20 07:46:42;;;;;;;;;;;;;;;;;;5021246;28;20334;-65
2022/06/20 07:49:08;;;;;;;;;;;;;;;;;;5019256;28;19975;-61
2022/06/20 07:51:33;;;;;;;;;;;;;;;;;;5018011;28;19963;-62
2022/06/20 07:54:01;;;;;;;;;;;;;;;;;;5002445;28;19917;-63
2022/06/20 07:56:27;;;;;;;;;;;;;;;;;;5020283;28;20630;-65
2022/06/20 07:58:55;;;;;;;;;;;;;;;;;;5018914;28;19928;-66
2022/06/20 08:01:22;;;;;;;;;;;;;;;;;;5005589;28;19921;-66
2022/06/20 08:03:50;;;;;;;;;;;;;;;;;;5019590;28;19971;-66
2022/06/20 08:06:15;;;;;;;;;;;;;;;;;;5020209;28;19952;-63
2022/06/20 08:08:43;;;;;;;;;;;;;;;;;;5018910;28;20016;-66
2022/06/20 08:11:09;;;;;;;;;;;;;;;;;;5020409;28;20456;-66
2022/06/20 08:13:37;;;;;;;;;;;;;;;;;;5022272;28;19921;-65
2022/06/20 08:16:02;;;;;;;;;;;;;;;;;;5025418;28;19927;-66
2022/06/20 08:18:30;;;;;;;;;;;;;;;;;;5023656;28;19924;-64
2022/06/20 08:20:56;;;;;;;;;;;;;;;;;;5003026;28;20670;-64
2022/06/20 08:23:21;;;;;;;;;;;;;;;;;;5025302;28;20007;-64
2022/06/20 08:25:47;;;;;;;;;;;;;;;;;;5023643;28;19955;-65
2022/06/20 08:28:12;;;;;;;;;;;;;;;;;;5024526;28;20493;-65
2022/06/20 08:30:38;;;;;;;;;;;;;;;;;;5022928;28;20793;-61
2022/06/20 08:33:06;;;;;;;;;;;;;;;;;;5041062;28;20484;-64
2022/06/20 08:35:31;;;;;;;;;;;;;;;;;;5021156;28;19932;-66
2022/06/20 08:37:57;;;;;;;;;;;;;;;;;;5016788;28;19929;-65
2022/06/20 08:40:22;;;;;;;;;;;;;;;;;;5039498;28;20000;-62
2022/06/20 08:42:47;;;;;;;;;;;;;;;;;;5023253;28;19921;-64
2022/06/20 08:45:13;;;;;;;;;;;;;;;;;;5022372;28;19917;-64
2022/06/20 08:47:38;;;;;;;;;;;;;;;;;;5007028;28;19924;-66
2022/06/20 08:50:03;;;;;;;;;;;;;;;;;;5036052;28;20427;-67
2022/06/20 08:52:29;;;;;;;;;;;;;;;;;;5021736;28;20479;-68
2022/06/20 08:54:54;;;;;;;;;;;;;;;;;;5023887;28;20530;-64
2022/06/20 08:57:22;;;;;;;;;;;;;;;;;;5025123;28;19936;-65
2022/06/20 08:59:47;;;;;;;;;;;;;;;;;;5024837;28;19970;-67
2022/06/20 09:02:13;;;;;;;;;;;;;;;;;;5025423;28;20284;-64
2022/06/20 09:04:40;;;;;;;;;;;;;;;;;;5022032;28;19921;-64
2022/06/20 09:07:06;;;;;;;;;;;;;;;;;;5023185;28;19924;-66
2022/06/20 09:09:33;;;;;;;;;;;;;;;;;;5023864;28;19921;-64
2022/06/20 09:12:01;;;;;;;;;;;;;;;;;;5020359;28;19920;-63
2022/06/20 09:14:27;;;;;;;;;;;;;;;;;;5026358;28;19932;-65
2022/06/20 09:16:52;;;;;;;;;;;;;;;;;;5022164;28;20399;-67
2022/06/20 09:19:18;;;;;;;;;;;;;;;;;;5021175;28;19967;-64
2022/06/20 09:21:45;;;;;;;;;;;;;;;;;;5022722;28;21754;-65
2022/06/20 09:24:11;;;;;;;;;;;;;;;;;;5024011;28;19994;-65
2022/06/20 09:26:36;;;;;;;;;;;;;;;;;;5021813;28;21739;-63
2022/06/20 09:29:01;;;;;;;;;;;;;;;;;;5020852;28;20266;-64
2022/06/20 09:31:27;;;;;;;;;;;;;;;;;;5020844;28;19940;-65
2022/06/20 09:33:52;;;;;;;;;;;;;;;;;;5021176;28;19964;-65
2022/06/20 09:36:18;;;;;;;;;;;;;;;;;;5005682;28;20001;-64
2022/06/20 09:38:43;;;;;;;;;;;;;;;;;;5022030;28;19956;-62
2022/06/20 09:41:08;;;;;;;;;;;;;;;;;;5026727;28;19917;-65
2022/06/20 09:43:36;;;;;;;;;;;;;;;;;;5024306;28;19928;-64
2022/06/20 09:46:03;;;;;;;;;;;;;;;;;;5022807;28;20009;-64
2022/06/20 09:48:29;;;;;;;;;;;;;;;;;;5022229;28;20121;-64
2022/06/20 09:50:59;;;;;;;;;;;;;;;;;;5023380;28;19966;-65
2022/06/20 09:53:24;;;;;;;;;;;;;;;;;;5022327;28;19921;-65
2022/06/20 09:55:49;;;;;;;;;;;;;;;;;;5021642;28;19925;-65
2022/06/20 09:58:15;;;;;;;;;;;;;;;;;;5022374;28;19936;-65
2022/06/20 10:00:40;;;;;;;;;;;;;;;;;;5021231;28;20626;-63
2022/06/20 10:03:05;;;;;;;;;;;;;;;;;;5022216;28;20375;-65
2022/06/20 10:05:31;;;;;;;;;;;;;;;;;;5020770;28;20305;-64
2022/06/20 10:07:56;;;;;;;;;;;;;;;;;;5021114;28;20087;-65
2022/06/20 10:10:21;;;;;;;;;;;;;;;;;;5023409;28;20055;-63
2022/06/20 10:12:47;;;;;;;;;;;;;;;;;;5023280;28;19948;-62
2022/06/20 10:15:16;;;;;;;;;;;;;;;;;;5022232;28;20400;-66
2022/06/20 10:17:44;;;;;;;;;;;;;;;;;;5021090;28;20551;-62
2022/06/20 10:20:09;;;;;;;;;;;;;;;;;;5022785;28;19932;-67
2022/06/20 10:22:35;;;;;;;;;;;;;;;;;;5024983;28;19936;-66
2022/06/20 10:25:00;;;;;;;;;;;;;;;;;;5020735;28;20031;-64
2022/06/20 10:27:28;;;;;;;;;;;;;;;;;;5022258;28;20011;-64
2022/06/20 10:29:54;;;;;;;;;;;;;;;;;;5020340;28;19921;-64
2022/06/20 10:32:19;;;;;;;;;;;;;;;;;;5022854;28;19921;-64
2022/06/20 10:34:45;;;;;;;;;;;;;;;;;;5021143;28;20003;-64
2022/06/20 10:37:12;;;;;;;;;;;;;;;;;;5018009;28;19924;-68
2022/06/20 10:39:40;;;;;;;;;;;;;;;;;;5022165;28;19917;-64
2022/06/20 10:42:05;;;;;;;;;;;;;;;;;;5002797;28;20011;-67
2022/06/20 10:44:33;;;;;;;;;;;;;;;;;;5020705;28;19929;-66
2022/06/20 10:47:00;;;;;;;;;;;;;;;;;;5021360;28;19922;-64
2022/06/20 10:49:26;;;;;;;;;;;;;;;;;;5019516;28;20043;-67
2022/06/20 10:51:52;;;;;;;;;;;;;;;;;;5004939;28;20043;-66
2022/06/20 10:54:17;;;;;;;;;;;;;;;;;;5020677;28;19921;-65
2022/06/20 10:56:45;;;;;;;;;;;;;;;;;;5018253;28;19952;-68
2022/06/20 10:59:13;;;;;;;;;;;;;;;;;;5022288;28;19968;-67
2022/06/20 11:01:38;;;;;;;;;;;;;;;;;;5021249;28;20015;-65
2022/06/20 11:04:04;;;;;;;;;;;;;;;;;;5021618;28;19924;-64
2022/06/20 11:06:30;;;;;;;;;;;;;;;;;;5021438;28;19917;-64
2022/06/20 11:08:55;;;;;;;;;;;;;;;;;;5018792;28;20012;-63
2022/06/20 11:11:23;;;;;;;;;;;;;;;;;;5022142;28;19960;-67
2022/06/20 11:13:48;;;;;;;;;;;;;;;;;;5019089;28;20079;-65
2022/06/20 11:16:14;;;;;;;;;;;;;;;;;;5020435;28;19921;-65
2022/06/20 11:18:40;;;;;;;;;;;;;;;;;;5018862;28;19929;-64
2022/06/20 11:21:06;;;;;;;;;;;;;;;;;;5021122;28;19928;-65
2022/06/20 11:23:31;;;;;;;;;;;;;;;;;;5021605;28;19920;-67
2022/06/20 11:25:57;;;;;;;;;;;;;;;;;;5020071;28;20924;-64
2022/06/20 11:28:22;;;;;;;;;;;;;;;;;;5003498;28;19928;-70
2022/06/20 11:30:48;;;;;;;;;;;;;;;;;;5022812;28;19920;-69
2022/06/20 11:33:16;;;;;;;;;;;;;;;;;;5019377;28;19916;-68
2022/06/20 11:35:41;;;;;;;;;;;;;;;;;;5021015;28;20059;-66
2022/06/20 11:38:06;;;;;;;;;;;;;;;;;;5022491;28;20012;-67
2022/06/20 11:40:34;;;;;;;;;;;;;;;;;;5021723;28;19929;-65
2022/06/20 11:43:03;;;;;;;;;;;;;;;;;;5021346;28;19921;-64
2022/06/20 11:45:30;;;;;;;;;;;;;;;;;;5019594;28;19925;-67
2022/06/20 11:47:58;;;;;;;;;;;;;;;;;;5020542;28;19932;-66
2022/06/20 11:50:24;;;;;;;;;;;;;;;;;;5019528;28;19952;-64
2022/06/20 11:52:49;;;;;;;;;;;;;;;;;;5022960;28;20273;-66
2022/06/20 11:55:17;;;;;;;;;;;;;;;;;;5019690;28;20000;-65
2022/06/20 11:57:46;;;;;;;;;;;;;;;;;;5019441;28;19920;-68
2022/06/20 12:00:17;;;;;;;;;;;;;;;;;;5019430;28;20592;-66
2022/06/20 12:02:45;;;;;;;;;;;;;;;;;;5019100;28;20471;-68
2022/06/20 12:05:13;;;;;;;;;;;;;;;;;;5020930;28;19932;-64
2022/06/20 12:07:40;;;;;;;;;;;;;;;;;;5019036;28;19924;-62
2022/06/20 12:10:08;;;;;;;;;;;;;;;;;;5018971;28;19979;-68
2022/06/20 12:12:34;;;;;;;;;;;;;;;;;;5020124;28;19927;-65
2022/06/20 12:14:59;;;;;;;;;;;;;;;;;;5018965;28;19925;-65
2022/06/20 12:17:27;;;;;;;;;;;;;;;;;;5020058;28;19924;-66
2022/06/20 12:25:20;;;;;;;;;;;;;;;;;;5021349;28;20027;-67
2022/06/20 12:27:47;;;;;;;;;;;;;;;;;;5018805;28;19931;-68
2022/06/20 12:30:15;;;;;;;;;;;;;;;;;;5021070;28;20011;-67
2022/06/20 12:32:40;;;;;;;;;;;;;;;;;;5003429;28;20417;-64
2022/06/20 12:35:06;;;;;;;;;;;;;;;;;;5020381;28;19924;-68
2022/06/20 12:37:31;;;;;;;;;;;;;;;;;;5022417;28;19921;-67
2022/06/20 12:39:58;;;;;;;;;;;;;;;;;;5020046;28;19917;-69
2022/06/20 12:42:26;;;;;;;;;;;;;;;;;;5021634;28;19928;-67
2022/06/20 12:44:51;;;;;;;;;;;;;;;;;;5000976;28;20028;-64
2022/06/20 12:47:16;;;;;;;;;;;;;;;;;;5017224;28;19921;-65
2022/06/20 12:49:45;;;;;;;;;;;;;;;;;;5019211;28;19924;-69
2022/06/20 12:52:10;;;;;;;;;;;;;;;;;;5020484;28;19974;-67
2022/06/20 12:54:35;;;;;;;;;;;;;;;;;;5000820;28;19971;-69
2022/06/20 12:57:00;;;;;;;;;;;;;;;;;;5018192;28;20932;-67
2022/06/20 12:59:26;;;;;;;;;;;;;;;;;;5030793;28;20007;-66
2022/06/20 13:01:53;;;;;;;;;;;;;;;;;;5024110;28;20012;-65
2022/06/20 13:04:19;;;;;;;;;;;;;;;;;;5023873;28;19951;-64
2022/06/20 13:06:44;;;;;;;;;;;;;;;;;;5023364;28;20323;-66
2022/06/20 13:09:12;;;;;;;;;;;;;;;;;;5021935;28;20015;-62
2022/06/20 13:11:37;;;;;;;;;;;;;;;;;;5023681;28;19917;-66
2022/06/20 13:14:03;;;;;;;;;;;;;;;;;;5024041;28;20391;-65
2022/06/20 13:16:29;;;;;;;;;;;;;;;;;;5022662;28;19927;-66
2022/06/20 13:18:56;;;;;;;;;;;;;;;;;;5022736;28;19923;-66
2022/06/20 13:21:26;;;;;;;;;;;;;;;;;;5021026;28;20043;-66
2022/06/20 13:23:51;;;;;;;;;;;;;;;;;;5024466;28;20231;-64
2022/06/20 13:26:17;;;;;;;;;;;;;;;;;;5022306;28;20490;-65
2022/06/20 13:28:45;;;;;;;;;;;;;;;;;;5024106;28;19960;-64
2022/06/20 13:31:13;;;;;;;;;;;;;;;;;;5024772;28;19920;-66
2022/06/20 13:33:38;;;;;;;;;;;;;;;;;;5017451;28;19920;-66
2022/06/20 13:36:04;;;;;;;;;;;;;;;;;;5025183;28;19935;-64
2022/06/20 13:38:31;;;;;;;;;;;;;;;;;;5003329;28;20015;-66
2022/06/20 13:40:56;;;;;;;;;;;;;;;;;;5023611;28;19955;-65
2022/06/20 13:43:22;;;;;;;;;;;;;;;;;;5022155;28;19927;-66
2022/06/20 13:45:47;;;;;;;;;;;;;;;;;;5021650;28;19962;-66
2022/06/20 13:48:15;;;;;;;;;;;;;;;;;;5024266;28;20023;-64
2022/06/20 13:50:43;;;;;;;;;;;;;;;;;;5016824;28;19927;-64
2022/06/20 13:53:11;;;;;;;;;;;;;;;;;;5021412;28;19925;-65
2022/06/20 13:55:39;;;;;;;;;;;;;;;;;;5022522;28;20000;-63
2022/06/20 13:58:04;;;;;;;;;;;;;;;;;;5017253;28;19929;-66
2022/06/20 14:00:32;;;;;;;;;;;;;;;;;;4997688;28;20011;-63
2022/06/20 14:02:58;;;;;;;;;;;;;;;;;;5016339;28;21789;-65
2022/06/20 14:05:23;;;;;;;;;;;;;;;;;;5016607;28;20502;-64
2022/06/20 14:07:48;;;;;;;;;;;;;;;;;;5026331;28;20587;-64
2022/06/20 14:10:16;;;;;;;;;;;;;;;;;;5016035;28;19917;-64
2022/06/20 14:12:44;;;;;;;;;;;;;;;;;;5017775;28;19925;-65
2022/06/20 14:15:09;;;;;;;;;;;;;;;;;;5021350;28;19917;-62
2022/06/20 14:17:35;;;;;;;;;;;;;;;;;;5017921;28;19976;-62
2022/06/20 14:20:04;;;;;;;;;;;;;;;;;;5017397;28;19921;-63
2022/06/20 14:22:33;;;;;;;;;;;;;;;;;;4996949;28;19920;-64
2022/06/20 14:25:01;;;;;;;;;;;;;;;;;;5013729;28;20007;-64
2022/06/20 14:27:27;;;;;;;;;;;;;;;;;;5013639;28;19976;-63
2022/06/20 14:29:53;;;;;;;;;;;;;;;;;;5017770;28;19959;-63
2022/06/20 14:32:18;;;;;;;;;;;;;;;;;;5021653;28;20439;-63
2022/06/20 14:35:20;;;;;;;;;;;;;;;;;;5014623;28;19925;-65
2022/06/20 14:37:29;;;;;;;;;;;;;;;;;;5015346;28;20495;-62
2022/06/20 14:39:54;;;;;;;;;;;;;;;;;;5010522;28;19931;-64
2022/06/20 14:42:22;;;;;;;;;;;;;;;;;;5012289;28;19920;-64
2022/06/20 14:44:49;;;;;;;;;;;;;;;;;;5019612;28;21937;-64
2022/06/20 14:47:19;;;;;;;;;;;;;;;;;;5022075;28;19917;-65
2022/06/20 14:49:46;;;;;;;;;;;;;;;;;;5015126;28;19983;-64
2022/06/20 14:52:11;;;;;;;;;;;;;;;;;;5011947;28;19928;-63
2022/06/20 14:54:36;;;;;;;;;;;;;;;;;;5012570;28;19920;-64
2022/06/20 14:57:01;;;;;;;;;;;;;;;;;;5008908;28;19925;-65
2022/06/20 14:59:27;;;;;;;;;;;;;;;;;;5010746;28;19932;-66
2022/06/20 15:01:52;;;;;;;;;;;;;;;;;;5021145;28;19970;-63
2022/06/20 15:04:17;;;;;;;;;;;;;;;;;;5019015;28;19960;-64
2022/06/20 15:06:43;;;;;;;;;;;;;;;;;;5017627;28;20016;-64
2022/06/20 15:09:08;;;;;;;;;;;;;;;;;;5002303;28;19936;-64
2022/06/20 15:11:36;;;;;;;;;;;;;;;;;;5018170;28;19921;-64
2022/06/20 15:14:04;;;;;;;;;;;;;;;;;;5018383;28;19975;-64
2022/06/20 15:16:29;;;;;;;;;;;;;;;;;;4997777;28;19917;-64
2022/06/20 15:18:54;;;;;;;;;;;;;;;;;;5016294;28;20012;-64
2022/06/20 15:21:23;;;;;;;;;;;;;;;;;;5013377;28;20011;-65
2022/06/20 15:23:49;;;;;;;;;;;;;;;;;;5018014;28;19927;-63
2022/06/20 15:26:19;;;;;;;;;;;;;;;;;;5001103;28;19920;-64
2022/06/20 15:28:45;;;;;;;;;;;;;;;;;;5017126;28;20357;-63
2022/06/20 15:31:12;;;;;;;;;;;;;;;;;;5015151;28;19925;-63
2022/06/20 15:33:40;;;;;;;;;;;;;;;;;;5018215;28;19924;-63
2022/06/20 15:36:09;;;;;;;;;;;;;;;;;;5008455;28;20476;-65
2022/06/20 15:38:37;;;;;;;;;;;;;;;;;;5008259;28;19917;-64
2022/06/20 15:41:03;;;;;;;;;;;;;;;;;;5004499;28;19939;-63
2022/06/20 15:43:29;;;;;;;;;;;;;;;;;;5008390;28;19922;-64
2022/06/20 15:45:54;;;;;;;;;;;;;;;;;;5013127;28;19921;-64
2022/06/20 15:48:19;;;;;;;;;;;;;;;;;;5012700;28;20014;-62
2022/06/20 15:50:50;;;;;;;;;;;;;;;;;;5009420;28;19928;-63
2022/06/20 15:53:16;;;;;;;;;;;;;;;;;;5016764;28;19917;-63
2022/06/20 15:55:45;;;;;;;;;;;;;;;;;;5008118;28;19932;-59
2022/06/20 15:58:10;;;;;;;;;;;;;;;;;;5011285;28;19933;-66
2022/06/20 16:00:38;;;;;;;;;;;;;;;;;;5008158;28;19944;-65
2022/06/20 16:03:03;;;;;;;;;;;;;;;;;;5004834;28;20003;-63
2022/06/20 16:05:28;;;;;;;;;;;;;;;;;;5012750;28;19927;-63
2022/06/20 16:07:56;;;;;;;;;;;;;;;;;;5007060;28;19920;-63
2022/06/20 16:10:21;;;;;;;;;;;;;;;;;;5007730;28;19921;-63
2022/06/20 16:12:51;;;;;;;;;;;;;;;;;;5013006;28;19917;-64
2022/06/20 16:15:16;;;;;;;;;;;;;;;;;;5015685;28;19924;-65
2022/06/20 16:17:41;;;;;;;;;;;;;;;;;;5019981;28;19921;-64
2022/06/20 16:20:10;;;;;;;;;;;;;;;;;;5015796;28;19916;-64
2022/06/20 16:22:35;;;;;;;;;;;;;;;;;;5013468;28;20050;-63
2022/06/20 16:25:03;;;;;;;;;;;;;;;;;;4998026;28;20657;-62
2022/06/20 16:27:31;;;;;;;;;;;;;;;;;;5012060;28;19967;-62
2022/06/20 16:29:56;;;;;;;;;;;;;;;;;;4995005;28;19983;-66
2022/06/20 16:32:24;;;;;;;;;;;;;;;;;;5010286;28;20703;-62
2022/06/20 16:34:49;;;;;;;;;;;;;;;;;;5007363;28;19947;-65
2022/06/20 16:37:14;;;;;;;;;;;;;;;;;;5021401;28;19921;-62
2022/06/20 16:39:40;;;;;;;;;;;;;;;;;;5014532;28;20074;-64
2022/06/20 16:42:10;;;;;;;;;;;;;;;;;;5009667;28;20003;-62
2022/06/20 16:44:38;;;;;;;;;;;;;;;;;;5000718;28;19924;-63
2022/06/20 16:47:09;;;;;;;;;;;;;;;;;;5022607;28;20957;-66
2022/06/20 16:49:34;;;;;;;;;;;;;;;;;;5024210;28;19925;-63
2022/06/20 16:52:00;;;;;;;;;;;;;;;;;;5022229;28;19994;-65
2022/06/20 16:54:27;;;;;;;;;;;;;;;;;;5021282;28;19954;-65
2022/06/20 16:56:53;;;;;;;;;;;;;;;;;;5021630;28;19971;-64
2022/06/20 16:59:22;;;;;;;;;;;;;;;;;;5015708;28;20455;-64
2022/06/20 17:01:51;;;;;;;;;;;;;;;;;;5019334;28;20039;-63
2022/06/20 17:04:16;;;;;;;;;;;;;;;;;;5022165;28;20368;-66
2022/06/20 17:06:42;;;;;;;;;;;;;;;;;;5012717;28;19921;-65
2022/06/20 17:09:09;;;;;;;;;;;;;;;;;;5020253;28;20406;-64
2022/06/20 17:11:35;;;;;;;;;;;;;;;;;;5023793;28;19944;-65
2022/06/20 17:14:03;;;;;;;;;;;;;;;;;;5023619;28;19921;-62
2022/06/20 17:16:28;;;;;;;;;;;;;;;;;;5014133;28;21030;-64
2022/06/20 17:18:55;;;;;;;;;;;;;;;;;;5013748;28;19925;-63
2022/06/20 17:21:21;;;;;;;;;;;;;;;;;;5019003;28;19917;-63
2022/06/20 17:23:46;;;;;;;;;;;;;;;;;;5017326;28;21839;-63
2022/06/20 17:26:11;;;;;;;;;;;;;;;;;;5014195;28;19996;-63
2022/06/20 17:28:41;;;;;;;;;;;;;;;;;;5014046;28;19924;-64
2022/06/20 17:31:14;;;;;;;;;;;;;;;;;;5014197;28;21734;-65
2022/06/20 17:33:40;;;;;;;;;;;;;;;;;;5007474;28;19955;-63
2022/06/20 17:36:05;;;;;;;;;;;;;;;;;;5013108;28;20883;-64
2022/06/20 17:38:31;;;;;;;;;;;;;;;;;;5011054;28;19956;-63
2022/06/20 17:40:57;;;;;;;;;;;;;;;;;;5021474;28;20535;-63
2022/06/20 17:43:22;;;;;;;;;;;;;;;;;;5018316;28;19925;-63
2022/06/20 17:45:47;;;;;;;;;;;;;;;;;;5020160;28;19917;-62
2022/06/20 17:48:14;;;;;;;;;;;;;;;;;;5011327;28;19925;-62
2022/06/20 17:50:41;;;;;;;;;;;;;;;;;;5024880;28;19955;-62
2022/06/20 17:53:09;;;;;;;;;;;;;;;;;;5012142;28;20399;-65
2022/06/20 17:55:37;;;;;;;;;;;;;;;;;;5008174;28;19921;-64
2022/06/20 17:58:06;;;;;;;;;;;;;;;;;;5012911;28;19925;-63
2022/06/20 18:00:31;;;;;;;;;;;;;;;;;;5022305;28;19912;-64
2022/06/20 18:02:57;;;;;;;;;;;;;;;;;;5017418;28;20897;-64
2022/06/20 18:05:24;;;;;;;;;;;;;;;;;;4997733;28;20016;-65
2022/06/20 18:07:50;;;;;;;;;;;;;;;;;;5013126;28;19927;-62
2022/06/20 18:10:18;;;;;;;;;;;;;;;;;;5015783;28;19960;-63
2022/06/20 18:12:43;;;;;;;;;;;;;;;;;;4997207;28;19925;-63
2022/06/20 18:15:11;;;;;;;;;;;;;;;;;;5021596;28;19921;-63
2022/06/20 18:17:37;;;;;;;;;;;;;;;;;;5017381;28;20568;-64
2022/06/20 18:20:02;;;;;;;;;;;;;;;;;;5014181;28;19921;-64
2022/06/20 18:22:28;;;;;;;;;;;;;;;;;;5016375;28;19921;-64
2022/06/20 18:24:56;;;;;;;;;;;;;;;;;;5014629;28;19932;-64
2022/06/20 18:27:21;;;;;;;;;;;;;;;;;;5013284;28;19924;-64